Time;durP1;ratioP1;P1;durP2;ratioP2;P2;SDS_P1;SDS_P2;PMS_P1;PMS_P2;Temp;Humidity;BMP_temperature;BMP_pressure;BME280_temperature;BME280_humidity;BME280_pressure;Samples;Min_cycle;Max_cycle;Signal;HPM_P1;HPM_P2
2021/10/10 00:01:54;;;;;;;120.00;45.67;;;;;;;-0.88;75.25;101064.27;1786811;80;20927;-67
2021/10/10 00:04:21;;;;;;;111.17;41.88;;;;;;;-0.92;75.57;101067.05;1786723;80;21463;-68
2021/10/10 00:06:47;;;;;;;93.70;39.45;;;;;;;-0.96;75.76;101064.45;1786866;80;21153;-67
2021/10/10 00:09:15;;;;;;;97.85;40.70;;;;;;;-1.00;75.96;101061.33;1786886;80;20900;-67
2021/10/10 00:11:41;;;;;;;105.52;39.73;;;;;;;-1.04;76.07;101060.59;1786853;80;20939;-66
2021/10/10 00:14:08;;;;;;;95.87;37.80;;;;;;;-1.07;76.10;101066.38;1786929;80;20987;-67
2021/10/10 00:16:35;;;;;;;105.58;39.63;;;;;;;-1.11;76.04;101063.78;1786858;80;21047;-67
2021/10/10 00:19:01;;;;;;;112.80;40.48;;;;;;;-1.17;76.26;101066.80;1786742;80;21055;-69
2021/10/10 00:21:28;;;;;;;98.33;38.23;;;;;;;-1.21;76.57;101058.80;1786757;80;20963;-67
2021/10/10 00:23:54;;;;;;;105.30;40.28;;;;;;;-1.21;76.82;101060.66;1782069;80;21049;-67
2021/10/10 00:26:21;;;;;;;106.37;41.98;;;;;;;-1.24;76.99;101057.86;1778516;80;21067;-68
2021/10/10 00:28:47;;;;;;;93.82;39.53;;;;;;;-1.28;77.28;101058.45;1778993;80;21055;-67
2021/10/10 00:31:14;;;;;;;107.80;41.83;;;;;;;-1.32;77.60;101060.72;1778490;80;21837;-71
2021/10/10 00:33:41;;;;;;;98.78;39.73;;;;;;;-1.32;77.70;101058.55;1778510;80;20987;-67
2021/10/10 00:36:08;;;;;;;99.05;40.50;;;;;;;-1.36;77.87;101064.33;1778690;80;21566;-68
2021/10/10 00:38:34;;;;;;;105.43;42.03;;;;;;;-1.38;78.02;101057.48;1778496;80;20939;-68
2021/10/10 00:41:01;;;;;;;93.12;38.65;;;;;;;-1.42;78.24;101056.22;1778700;80;21550;-68
2021/10/10 00:43:27;;;;;;;101.02;40.75;;;;;;;-1.44;78.42;101062.33;1778630;80;21155;-68
2021/10/10 00:45:54;;;;;;;104.80;38.95;;;;;;;-1.46;78.51;101051.75;1778633;80;20931;-67
2021/10/10 00:48:20;;;;;;;95.10;36.85;;;;;;;-1.46;78.65;101054.45;1778536;80;21046;-68
2021/10/10 00:50:47;;;;;;;90.20;35.03;;;;;;;-1.47;78.64;101055.48;1778872;80;20999;-68
2021/10/10 00:53:16;;;;;;;92.35;38.78;;;;;;;-1.48;78.77;101054.33;1781432;80;20979;-69
2021/10/10 00:55:42;;;;;;;111.60;40.38;;;;;;;-1.51;78.90;101058.77;1782610;80;21143;-68
2021/10/10 00:58:09;;;;;;;102.05;41.23;;;;;;;-1.55;79.06;101061.03;1782647;80;20951;-67
2021/10/10 01:00:35;;;;;;;113.68;40.05;;;;;;;-1.58;79.16;101056.04;1782659;80;20952;-68
2021/10/10 01:03:02;;;;;;;131.03;45.20;;;;;;;-1.60;79.39;101059.45;1784429;80;21094;-67
2021/10/10 01:05:29;;;;;;;107.43;40.35;;;;;;;-1.63;79.57;101063.05;1782751;80;20981;-68
2021/10/10 01:07:56;;;;;;;115.90;39.83;;;;;;;-1.65;79.72;101059.21;1782605;80;21233;-69
2021/10/10 01:10:23;;;;;;;114.42;42.25;;;;;;;-1.69;79.89;101061.98;1782832;80;20943;-68
2021/10/10 01:12:49;;;;;;;100.67;37.10;;;;;;;-1.70;80.13;101066.54;1759768;80;21015;-68
2021/10/10 01:15:16;;;;;;;104.95;36.73;;;;;;;-1.71;80.12;101062.70;1774775;80;21087;-68
2021/10/10 01:17:42;;;;;;;96.65;36.30;;;;;;;-1.72;80.08;101061.03;1774845;80;21051;-68
2021/10/10 01:20:11;;;;;;;99.13;36.40;;;;;;;-1.73;80.24;101062.06;1774485;80;22084;-68
2021/10/10 01:22:39;;;;;;;96.50;33.30;;;;;;;-1.75;80.30;101059.61;1774546;80;20976;-68
2021/10/10 01:25:06;;;;;;;84.65;36.08;;;;;;;-1.79;80.48;101056.16;1774519;80;20936;-68
2021/10/10 01:27:33;;;;;;;88.62;34.78;;;;;;;-1.82;80.74;101056.55;1774459;80;20972;-68
2021/10/10 01:30:00;;;;;;;92.95;34.75;;;;;;;-1.84;80.82;101058.09;1774646;80;20939;-67
2021/10/10 01:32:26;;;;;;;94.50;36.45;;;;;;;-1.85;80.72;101055.60;1774483;80;22466;-68
2021/10/10 01:34:53;;;;;;;99.72;38.28;;;;;;;-1.90;80.77;101055.36;1774473;80;20955;-68
2021/10/10 01:37:20;;;;;;;84.83;34.25;;;;;;;-1.93;80.97;101049.86;1774951;80;20900;-68
2021/10/10 01:39:46;;;;;;;92.88;36.68;;;;;;;-1.93;81.11;101049.03;1774902;80;21585;-68
2021/10/10 01:42:13;;;;;;;99.83;34.63;;;;;;;-1.95;81.24;101044.36;1774594;80;21004;-67
2021/10/10 01:44:39;;;;;;;84.50;33.85;;;;;;;-1.95;81.27;101047.05;1774663;80;21129;-67
2021/10/10 01:47:06;;;;;;;87.72;34.33;;;;;;;-1.97;81.36;101044.55;1774866;80;20923;-67
2021/10/10 01:49:38;;;;;;;92.02;35.85;;;;;;;-2.00;81.48;101044.44;1774764;80;20932;-67
2021/10/10 01:52:05;;;;;;;89.22;33.50;;;;;;;-2.05;81.59;101048.23;1774988;80;20999;-68
2021/10/10 01:54:32;;;;;;;83.62;32.83;;;;;;;-2.08;81.71;101041.89;1774697;80;20998;-68
2021/10/10 01:56:59;;;;;;;96.22;34.20;;;;;;;-2.08;81.81;101045.09;1774699;80;21782;-68
2021/10/10 01:59:26;;;;;;;92.22;31.65;;;;;;;-2.08;81.76;101044.58;1774821;80;21067;-67
2021/10/10 02:01:54;;;;;;;89.90;33.25;;;;;;;-2.12;81.71;101036.59;1774128;80;21033;-67
2021/10/10 02:04:21;;;;;;;92.17;34.40;;;;;;;-2.12;81.83;101040.63;1774611;80;21039;-67
2021/10/10 02:06:48;;;;;;;79.62;31.73;;;;;;;-2.13;81.85;101039.47;1774884;80;20944;-67
2021/10/10 02:09:14;;;;;;;78.17;32.08;;;;;;;-2.13;81.94;101047.03;1774563;80;21793;-66
2021/10/10 02:11:41;;;;;;;84.47;32.13;;;;;;;-2.15;81.95;101045.05;1769736;80;20988;-67
2021/10/10 02:14:08;;;;;;;82.42;32.08;;;;;;;-2.15;81.96;101041.02;1783022;80;21001;-67
2021/10/10 02:16:34;;;;;;;88.70;33.23;;;;;;;-2.14;81.93;101037.30;1782989;80;21018;-68
2021/10/10 02:19:01;;;;;;;84.70;32.25;;;;;;;-2.14;81.85;101039.98;1782997;80;21485;-67
2021/10/10 02:21:27;;;;;;;86.32;32.33;;;;;;;-2.17;81.90;101033.66;1783184;80;21101;-67
2021/10/10 02:23:54;;;;;;;81.82;32.25;;;;;;;-2.17;82.02;101029.62;1782748;80;21047;-67
2021/10/10 02:26:21;;;;;;;79.45;30.08;;;;;;;-2.16;81.97;101037.17;1782911;80;20999;-67
2021/10/10 02:28:47;;;;;;;70.35;30.02;;;;;;;-2.17;81.99;101040.37;1783019;80;20939;-67
2021/10/10 02:31:14;;;;;;;83.25;32.67;;;;;;;-2.19;82.09;101033.02;1783155;80;21473;-67
2021/10/10 02:33:41;;;;;;;80.65;30.35;;;;;;;-2.19;82.14;101033.02;1759051;80;21206;-67
2021/10/10 02:36:07;;;;;;;81.28;29.35;;;;;;;-2.20;82.09;101039.42;1782837;80;20932;-67
2021/10/10 02:38:34;;;;;;;84.35;30.82;;;;;;;-2.21;82.11;101035.07;1783503;80;21487;-67
2021/10/10 02:41:00;;;;;;;79.05;30.52;;;;;;;-2.21;82.30;101030.20;1783527;80;20978;-66
2021/10/10 02:43:29;;;;;;;75.57;27.85;;;;;;;-2.19;82.37;101037.05;1782973;80;21110;-67
2021/10/10 02:45:55;;;;;;;89.20;32.03;;;;;;;-2.19;82.31;101034.88;1783619;80;20984;-68
2021/10/10 02:48:22;;;;;;;75.00;28.57;;;;;;;-2.22;82.40;101033.92;1783443;80;20979;-67
2021/10/10 02:50:48;;;;;;;73.07;28.90;;;;;;;-2.23;82.52;101037.13;1783503;80;21340;-68
2021/10/10 02:53:15;;;;;;;72.40;27.35;;;;;;;-2.25;82.61;101037.83;1783268;80;20939;-67
2021/10/10 02:55:42;;;;;;;68.67;27.87;;;;;;;-2.24;82.75;101040.84;1783560;80;20962;-68
2021/10/10 02:58:08;;;;;;;68.85;28.42;;;;;;;-2.23;82.76;101038.98;1770698;79;21383;-67
2021/10/10 03:00:35;;;;;;;68.97;27.27;;;;;;;-2.24;82.71;101040.02;1770871;80;20978;-67
2021/10/10 03:03:01;;;;;;;80.10;29.95;;;;;;;-2.27;82.77;101041.23;1752858;81;21498;-67
2021/10/10 03:05:28;;;;;;;75.70;28.80;;;;;;;-2.29;82.83;101044.63;1735835;82;20896;-68
2021/10/10 03:07:55;;;;;;;60.90;26.15;;;;;;;-2.31;82.81;101042.65;1744199;80;21028;-68
2021/10/10 03:10:21;;;;;;;76.57;26.42;;;;;;;-2.32;82.90;101045.05;1725675;82;21119;-69
2021/10/10 03:12:48;;;;;;;65.00;26.25;;;;;;;-2.32;82.99;101042.36;1783748;80;20895;-68
2021/10/10 03:15:14;;;;;;;66.40;25.08;;;;;;;-2.31;83.10;101041.84;1723452;82;21558;-68
2021/10/10 03:17:41;;;;;;;74.35;26.00;;;;;;;-2.31;83.10;101041.84;1749300;81;21478;-68
2021/10/10 03:20:12;;;;;;;70.47;25.85;;;;;;;-2.31;83.12;101041.30;1749045;82;21006;-69
2021/10/10 03:22:38;;;;;;;65.47;26.20;;;;;;;-2.32;83.14;101034.30;1749427;82;21140;-68
2021/10/10 03:25:06;;;;;;;63.10;24.57;;;;;;;-2.34;83.16;101031.80;1748857;81;20845;-67
2021/10/10 03:27:33;;;;;;;66.85;23.67;;;;;;;-2.35;83.16;101034.17;1745563;82;20954;-67
2021/10/10 03:30:00;;;;;;;64.95;25.10;;;;;;;-2.35;83.29;101036.86;1723225;83;21491;-68
2021/10/10 03:32:27;;;;;;;64.45;23.50;;;;;;;-2.33;83.47;101032.63;1779286;80;20888;-67
2021/10/10 03:34:54;;;;;;;54.85;22.58;;;;;;;-2.32;83.52;101032.95;1778813;80;21128;-68
2021/10/10 03:37:21;;;;;;;54.45;23.42;;;;;;;-2.29;83.59;101023.63;1767937;80;20870;-67
2021/10/10 03:39:47;;;;;;;65.90;23.85;;;;;;;-2.28;83.59;101022.59;1773979;79;20962;-68
2021/10/10 03:42:14;;;;;;;57.62;24.30;;;;;;;-2.28;83.76;101020.73;1719200;83;20940;-68
2021/10/10 03:44:41;;;;;;;60.48;23.10;;;;;;;-2.27;83.83;101021.06;1741178;82;20952;-68
2021/10/10 03:47:08;;;;;;;56.73;23.30;;;;;;;-2.26;83.82;101018.69;1748872;82;21821;-68
2021/10/10 03:49:36;;;;;;;63.00;23.62;;;;;;;-2.24;83.86;101021.18;1748632;81;21008;-67
2021/10/10 03:52:04;;;;;;;61.30;24.80;;;;;;;-2.24;83.97;101022.02;1743708;82;21479;-67
2021/10/10 03:57:22;;;;;;;56.35;22.35;;;;;;;-2.19;84.16;101022.25;1719118;83;20951;-67
2021/10/10 03:59:48;;;;;;;51.90;21.60;;;;;;;-2.17;84.29;101018.85;1718525;82;22016;-68
2021/10/10 04:02:14;;;;;;;58.05;21.48;;;;;;;-2.14;84.47;101019.81;1718869;82;20975;-68
2021/10/10 04:04:42;;;;;;;50.95;20.23;;;;;;;-2.10;84.60;101014.86;1777541;80;21006;-68
2021/10/10 04:07:10;;;;;;;51.65;21.60;;;;;;;-2.06;84.71;101014.27;1776719;80;20955;-68
2021/10/10 04:09:37;;;;;;;51.33;21.35;;;;;;;-2.03;84.84;101013.88;1776122;80;21003;-68
2021/10/10 04:12:04;;;;;;;50.17;20.17;;;;;;;-1.97;84.93;101010.08;1773158;79;21160;-69
2021/10/10 04:14:33;;;;;;;46.95;20.70;;;;;;;-1.93;85.01;101004.62;1750245;82;20931;-68
2021/10/10 04:17:01;;;;;;;54.73;20.60;;;;;;;-1.89;85.13;101004.54;1750315;82;21007;-68
2021/10/10 04:19:28;;;;;;;53.42;19.95;;;;;;;-1.85;85.31;101005.28;1750369;82;21046;-70
2021/10/10 04:21:54;;;;;;;47.33;18.85;;;;;;;-1.78;85.44;101005.33;1750488;82;20990;-67
2021/10/10 04:24:26;;;;;;;42.95;18.95;;;;;;;-1.71;85.52;101007.50;1750151;82;21128;-68
2021/10/10 04:26:54;;;;;;;45.12;18.73;;;;;;;-1.66;85.55;101001.83;1759880;79;20974;-68
2021/10/10 04:29:25;;;;;;;46.23;20.57;;;;;;;-1.60;85.70;101006.94;1778332;80;21011;-69
2021/10/10 04:31:56;;;;;;;48.78;20.00;;;;;;;-1.54;85.90;101001.27;1757045;79;20992;-69
2021/10/10 04:34:29;;;;;;;40.98;17.82;;;;;;;-1.45;86.03;101004.09;1753978;80;21015;-70
2021/10/10 04:36:58;;;;;;;46.05;17.75;;;;;;;-1.35;86.01;101003.20;1731651;79;20974;-70
2021/10/10 04:39:31;;;;;;;42.25;17.23;;;;;;;-1.26;85.98;100997.95;1767495;80;20896;-70
2021/10/10 04:42:00;;;;;;;36.50;16.50;;;;;;;-1.14;85.89;100998.16;1721866;81;21033;-70
2021/10/10 04:44:27;;;;;;;44.93;17.35;;;;;;;-1.03;85.82;100999.73;1722450;82;21086;-69
2021/10/10 04:46:57;;;;;;;43.02;17.82;;;;;;;-0.90;85.50;101001.62;1751948;81;21093;-70
2021/10/10 04:49:28;;;;;;;50.58;18.95;;;;;;;-0.60;84.80;101007.47;1756340;81;21177;-70
2021/10/10 04:52:03;;;;;;;50.58;18.98;;;;;;;-0.60;84.80;101007.47;1775887;80;20948;-70
2021/10/10 04:54:37;;;;;;;44.38;18.17;;;;;;;-0.46;84.54;101009.62;1763072;80;20886;-72
2021/10/10 04:57:11;;;;;;;42.58;19.55;;;;;;;-0.33;84.05;101004.22;1775932;79;20995;-71
2021/10/10 04:59:52;;;;;;;41.65;19.20;;;;;;;-0.20;83.69;101006.91;1782704;79;20908;-70
2021/10/10 05:02:18;;;;;;;49.25;17.02;;;;;;;-0.08;83.20;101009.28;1748062;81;21503;-71
2021/10/10 05:04:48;;;;;;;36.42;17.05;;;;;;;0.06;82.89;101007.35;1735785;82;21007;-71
2021/10/10 05:07:16;;;;;;;41.15;16.93;;;;;;;0.18;82.44;101011.59;1783471;79;20932;-70
2021/10/10 05:09:47;;;;;;;42.58;17.40;;;;;;;0.28;82.18;101013.32;1774314;79;20971;-70
2021/10/10 05:12:16;;;;;;;40.40;17.45;;;;;;;0.42;81.47;101010.89;1754589;80;21043;-70
2021/10/10 05:14:44;;;;;;;38.73;16.80;;;;;;;0.56;81.18;101009.80;1750446;82;21145;-70
2021/10/10 05:17:19;;;;;;;41.35;16.60;;;;;;;0.70;80.76;101012.41;1750401;82;21598;-69
2021/10/10 05:19:53;;;;;;;42.30;16.57;;;;;;;0.84;80.50;101019.41;1793226;79;21007;-68
2021/10/10 05:22:22;;;;;;;45.00;18.20;;;;;;;0.98;79.94;101022.35;1807187;79;20923;-68
2021/10/10 05:24:57;;;;;;;38.28;16.48;;;;;;;1.12;79.49;101020.40;1787906;79;20995;-69
2021/10/10 05:27:24;;;;;;;;;;;;;;;1.25;79.52;101023.81;1785835;80;21191;-68
2021/10/10 05:30:00;;;;;;;38.30;15.60;;;;;;;1.39;78.91;101021.02;1783461;80;20080;-70
2021/10/10 05:32:29;;;;;;;38.70;16.73;;;;;;;1.51;78.14;101026.86;1779069;79;21006;-70
2021/10/10 05:34:58;;;;;;;42.65;16.67;;;;;;;1.65;78.19;101021.64;1782156;80;21004;-70
2021/10/10 05:37:30;;;;;;;40.30;15.90;;;;;;;1.83;77.66;101030.31;1777051;80;21048;-69
2021/10/10 05:40:03;;;;;;;40.43;16.07;;;;;;;1.97;77.01;101030.49;1753990;80;20978;-70
2021/10/10 05:42:32;;;;;;;40.60;16.97;;;;;;;2.11;75.97;101024.42;1753702;81;20934;-69
2021/10/10 05:45:02;;;;;;;37.88;16.00;;;;;;;2.22;75.98;101033.69;1704868;83;20932;-69
2021/10/10 05:47:30;;;;;;;39.08;16.48;;;;;;;2.34;74.82;101034.57;1762720;80;21027;-69
2021/10/10 05:50:03;;;;;;;41.73;14.83;;;;;;;2.44;74.41;101037.59;1779421;79;21062;-71
2021/10/10 05:52:33;;;;;;;37.65;15.83;;;;;;;2.59;74.16;101035.86;1761902;80;21463;-70
2021/10/10 05:55:07;;;;;;;37.55;15.95;;;;;;;2.70;73.46;101033.73;1774771;79;21040;-70
2021/10/10 05:57:42;;;;;;;37.90;17.40;;;;;;;2.80;72.54;101038.62;1779337;80;20924;-70
2021/10/10 06:00:06;;;;;;;32.17;16.65;;;;;;;2.90;72.22;101041.59;1779153;80;21494;-71
2021/10/10 06:02:34;;;;;;;34.58;15.95;;;;;;;2.97;72.04;101039.09;1778812;80;20959;-71
2021/10/10 06:05:02;;;;;;;45.63;18.37;;;;;;;3.09;71.89;101043.73;1779385;80;21199;-70
2021/10/10 06:07:31;;;;;;;38.85;16.05;;;;;;;3.18;71.31;101039.12;1781699;80;21576;-72
2021/10/10 06:10:01;;;;;;;40.63;18.25;;;;;;;3.28;71.10;101042.10;1782560;80;20975;-70
2021/10/10 06:12:34;;;;;;;36.08;15.65;;;;;;;3.40;70.77;101043.49;1783768;79;21011;-70
2021/10/10 06:15:05;;;;;;;37.58;17.60;;;;;;;3.53;70.07;101045.16;1777415;80;21007;-69
2021/10/10 06:17:37;;;;;;;48.52;18.23;;;;;;;3.63;69.68;101040.80;1777658;80;21094;-69
2021/10/10 06:20:06;;;;;;;44.77;17.73;;;;;;;3.75;69.26;101042.71;1776222;80;20996;-71
2021/10/10 06:22:36;;;;;;;49.00;18.00;;;;;;;3.86;68.67;101048.16;1779079;80;21502;-71
2021/10/10 06:25:14;;;;;;;35.90;17.02;;;;;;;3.95;68.49;101041.31;1759914;80;20907;-70
2021/10/10 06:27:42;;;;;;;44.48;16.45;;;;;;;4.07;68.52;101045.90;1777178;80;26730;-70
2021/10/10 06:30:14;;;;;;;45.03;18.62;;;;;;;4.19;68.16;101048.91;1783546;80;21842;-70
2021/10/10 06:32:44;;;;;;;37.53;15.20;;;;;;;4.46;67.53;101045.16;1783458;79;21024;-71
2021/10/10 06:35:16;;;;;;;33.40;15.05;;;;;;;4.59;66.72;101048.98;1774874;80;21050;-70
2021/10/10 06:37:45;;;;;;;35.58;14.15;;;;;;;4.59;66.72;101048.98;1788032;80;21498;-70
2021/10/10 06:40:21;;;;;;;40.10;14.98;;;;;;;4.73;66.12;101048.69;1780971;80;21070;-70
2021/10/10 06:42:51;;;;;;;41.88;15.50;;;;;;;4.98;64.63;101039.69;1782223;80;20958;-70
2021/10/10 06:45:21;;;;;;;41.13;15.05;;;;;;;4.98;64.63;101039.69;1789184;80;20962;-70
2021/10/10 06:47:53;;;;;;;30.20;13.53;;;;;;;6.11;63.27;101040.00;1791190;80;21019;-69
2021/10/10 06:50:25;;;;;;;42.93;15.65;;;;;;;6.11;63.27;101040.00;1757896;80;21520;-70
2021/10/10 06:53:04;;;;;;;33.92;14.18;;;;;;;7.11;61.15;101038.80;1786409;80;21530;-71
2021/10/10 06:55:33;;;;;;;40.25;14.65;;;;;;;8.00;58.68;101040.13;1790957;80;21144;-71
2021/10/10 06:58:03;;;;;;;37.93;15.88;;;;;;;8.74;55.79;101038.64;1790579;80;20915;-72
2021/10/10 07:00:33;;;;;;;43.20;17.67;;;;;;;9.28;54.15;101027.56;1791430;80;21533;-70
2021/10/10 07:03:00;;;;;;;49.08;18.27;;;;;;;9.72;51.98;101030.36;1791120;80;21001;-70
2021/10/10 07:05:27;;;;;;;41.63;16.10;;;;;;;10.08;50.80;101031.13;1791565;80;21514;-70
2021/10/10 07:07:53;;;;;;;35.63;15.68;;;;;;;10.49;49.48;101025.84;1790924;80;21249;-70
2021/10/10 07:10:20;;;;;;;39.33;16.15;;;;;;;10.90;48.46;101022.95;1791134;80;20958;-70
2021/10/10 07:12:46;;;;;;;54.20;17.65;;;;;;;11.26;47.21;101022.17;1790725;80;20919;-71
2021/10/10 07:15:15;;;;;;;31.07;15.50;;;;;;;11.63;46.36;101018.87;1791174;80;20899;-70
2021/10/10 07:17:43;;;;;;;32.67;15.30;;;;;;;12.00;44.29;101014.74;1790968;80;21018;-70
2021/10/10 07:20:24;;;;;;;39.58;15.72;;;;;;;12.22;43.99;101015.05;1790663;80;21037;-70
2021/10/10 07:22:44;;;;;;;34.53;15.28;;;;;;;12.55;43.43;101016.06;1788748;80;21510;-70
2021/10/10 07:25:11;;;;;;;35.58;15.28;;;;;;;12.98;42.80;101011.93;1790752;80;21004;-71
2021/10/10 07:27:41;;;;;;;31.57;14.45;;;;;;;13.28;41.05;101009.34;1789187;80;21444;-71
2021/10/10 07:30:10;;;;;;;31.50;14.15;;;;;;;13.39;40.52;101012.18;1788957;80;21027;-71
2021/10/10 07:32:38;;;;;;;37.35;14.15;;;;;;;13.44;40.80;101004.64;1788961;80;21130;-71
2021/10/10 07:35:06;;;;;;;38.38;13.40;;;;;;;13.55;40.21;101000.61;1789123;80;20951;-69
2021/10/10 07:37:33;;;;;;;28.45;13.38;;;;;;;13.80;39.46;100998.00;1789067;80;21015;-70
2021/10/10 07:39:59;;;;;;;34.53;11.85;;;;;;;14.15;38.90;100997.91;1788982;80;21022;-70
2021/10/10 07:42:26;;;;;;;22.85;12.30;;;;;;;14.50;38.24;100990.88;1788985;80;21027;-67
2021/10/10 07:44:54;;;;;;;25.52;12.85;;;;;;;14.77;37.49;100995.58;1788880;80;21127;-68
2021/10/10 07:49:54;;;;;;;27.02;12.05;;;;;;;14.84;37.19;100994.61;1789445;80;21019;-69
2021/10/10 07:52:20;;;;;;;27.60;12.10;;;;;;;14.90;37.34;100993.94;1789186;80;21941;-69
2021/10/10 07:54:47;;;;;;;27.30;13.58;;;;;;;15.03;36.61;100986.15;1789185;80;21375;-68
2021/10/10 07:57:14;;;;;;;25.10;12.10;;;;;;;15.15;36.29;100989.20;1789192;80;21131;-70
2021/10/10 07:59:40;;;;;;;22.00;9.75;;;;;;;15.36;35.44;100985.39;1789308;80;21045;-69
2021/10/10 08:02:07;;;;;;;19.73;8.43;;;;;;;15.46;33.91;100983.77;1788981;80;20994;-68
2021/10/10 08:04:34;;;;;;;27.17;10.00;;;;;;;15.56;33.28;100990.19;1788867;80;21015;-71
2021/10/10 08:07:03;;;;;;;20.25;10.03;;;;;;;15.53;32.19;100978.62;1785194;80;21643;-74
2021/10/10 08:09:30;;;;;;;21.15;10.25;;;;;;;15.51;32.65;100981.45;1787116;80;21136;-70
2021/10/10 08:11:58;;;;;;;25.55;10.20;;;;;;;15.60;32.71;100985.70;1782070;80;20904;-72
2021/10/10 08:14:25;;;;;;;20.15;9.00;;;;;;;15.66;32.59;100980.25;1783000;80;20971;-70
2021/10/10 08:16:52;;;;;;;34.45;9.50;;;;;;;15.76;31.86;100984.16;1783714;80;21585;-71
2021/10/10 08:19:18;;;;;;;15.50;8.85;;;;;;;15.93;31.36;100977.91;1778802;80;20907;-73
2021/10/10 08:21:45;;;;;;;19.25;8.45;;;;;;;16.22;31.26;100979.59;1747972;82;21220;-73
2021/10/10 08:24:12;;;;;;;20.88;9.73;;;;;;;16.49;30.00;100985.50;1788924;78;20962;-73
2021/10/10 08:26:39;;;;;;;26.27;10.15;;;;;;;16.51;29.92;100981.27;1783625;80;20979;-80
2021/10/10 08:29:06;;;;;;;18.12;8.80;;;;;;;16.45;30.94;100977.01;1780364;80;21043;-86
2021/10/10 08:31:33;;;;;;;21.33;8.93;;;;;;;16.58;29.35;100979.42;1779036;79;20992;-76
2021/10/10 08:33:59;;;;;;;15.90;9.18;;;;;;;16.60;29.41;100978.53;1734441;81;21125;-74
2021/10/10 08:36:27;;;;;;;25.90;10.85;;;;;;;16.70;29.60;100971.91;1750669;82;21494;-75
2021/10/10 08:38:54;;;;;;;26.23;10.75;;;;;;;16.92;29.79;100977.31;1749945;81;20975;-72
2021/10/10 08:41:28;;;;;;;20.85;8.80;;;;;;;17.11;29.28;100968.13;1779193;79;21030;-74
2021/10/10 08:43:56;;;;;;;17.60;7.70;;;;;;;17.19;29.08;100976.20;1778206;80;20859;-74
2021/10/10 08:46:26;;;;;;;17.02;6.22;;;;;;;17.30;28.84;100976.70;1778946;80;21263;-74
2021/10/10 08:48:54;;;;;;;11.65;5.60;;;;;;;17.55;27.73;100974.47;1778290;80;20915;-76
2021/10/10 08:51:21;;;;;;;17.10;7.33;;;;;;;17.61;26.30;100960.66;1778673;80;20879;-74
2021/10/10 08:53:48;;;;;;;17.92;8.38;;;;;;;17.47;26.69;100966.96;1778575;80;21085;-73
2021/10/10 08:56:15;;;;;;;17.70;9.65;;;;;;;17.21;27.71;100971.72;1781290;80;21007;-73
2021/10/10 08:58:46;;;;;;;17.27;7.67;;;;;;;17.18;28.52;100977.92;1721695;82;21479;-73
2021/10/10 09:01:18;;;;;;;19.75;8.45;;;;;;;17.32;27.80;100974.42;1743971;82;20936;-74
2021/10/10 09:03:50;;;;;;;13.93;6.40;;;;;;;17.45;27.80;100966.47;1743649;82;21507;-73
2021/10/10 09:06:17;;;;;;;17.65;7.87;;;;;;;17.54;28.15;100968.67;1743300;82;21090;-70
2021/10/10 09:08:43;;;;;;;12.98;5.78;;;;;;;17.49;27.84;100968.27;1743669;82;21063;-77
2021/10/10 09:11:10;;;;;;;19.52;9.35;;;;;;;17.30;26.57;100971.16;1743447;81;20996;-77
2021/10/10 09:13:41;;;;;;;15.83;6.83;;;;;;;16.96;26.42;100961.66;1753630;81;20907;-71
2021/10/10 09:16:10;;;;;;;15.95;5.03;;;;;;;16.74;28.08;100971.51;1756273;81;32467;-71
2021/10/10 09:18:41;;;;;;;8.68;4.83;;;;;;;16.80;28.14;100975.73;1774876;80;21050;-71
2021/10/10 09:21:30;;;;;;;13.05;5.70;;;;;;;16.94;26.57;100963.12;1752585;81;21529;-71
2021/10/10 09:23:56;;;;;;;11.15;4.92;;;;;;;17.09;26.93;100962.08;1751054;81;21101;-77
2021/10/10 09:26:24;;;;;;;8.93;4.33;;;;;;;17.21;26.37;100957.84;1718697;82;22170;-73
2021/10/10 09:28:52;;;;;;;12.40;3.80;;;;;;;17.19;27.17;100961.52;1722076;83;20967;-72
2021/10/10 09:31:18;;;;;;;5.33;3.70;;;;;;;17.25;26.43;100963.81;1729834;83;21053;-76
2021/10/10 09:33:52;;;;;;;11.00;4.60;;;;;;;17.23;25.04;100961.11;1729850;83;21047;-71
2021/10/10 09:36:25;;;;;;;8.43;4.22;;;;;;;17.08;25.38;100957.67;1751299;81;21132;-71
2021/10/10 09:41:32;;;;;;;6.20;3.35;;;;;;;16.89;26.32;100964.66;1760028;81;21066;-84
2021/10/10 09:44:17;;;;;;;7.28;3.60;;;;;;;16.94;25.80;100957.00;1753276;81;21073;-72
2021/10/10 09:46:44;;;;;;;5.67;3.10;;;;;;;16.89;25.66;100957.16;1752061;81;21051;-75
2021/10/10 09:49:33;;;;;;;10.60;3.30;;;;;;;16.74;25.93;100960.42;1735110;81;21071;-72
2021/10/10 09:52:12;;;;;;;25.72;4.53;;;;;;;16.86;26.76;100959.19;1729442;83;20852;-78
2021/10/10 09:54:54;;;;;;;11.75;4.28;;;;;;;17.28;26.80;100957.60;1729714;83;21022;-81
2021/10/10 09:57:22;;;;;;;5.92;3.37;;;;;;;17.62;25.99;100951.76;1729790;81;21082;-73
2021/10/10 09:59:50;;;;;;;8.25;3.77;;;;;;;17.88;26.65;100947.00;1729699;81;21113;-70
2021/10/10 10:02:17;;;;;;;13.40;4.20;;;;;;;18.20;25.27;100946.95;1729537;83;21063;-71
2021/10/10 10:04:49;;;;;;;20.48;5.58;;;;;;;18.18;25.07;100942.30;1729292;83;20970;-70
2021/10/10 10:07:18;;;;;;;;;;;;;;;17.71;25.29;100947.86;1732611;83;21492;-69
2021/10/10 10:09:52;;;;;;;12.58;5.42;;;;;;;17.39;25.91;100951.13;1729320;82;20414;-70
2021/10/10 10:12:32;;;;;;;13.83;4.80;;;;;;;17.15;26.25;100949.68;1713956;81;21015;-69
2021/10/10 10:15:04;;;;;;;7.37;3.15;;;;;;;16.97;26.36;100956.35;1759675;81;20981;-70
2021/10/10 10:17:39;;;;;;;11.35;5.03;;;;;;;16.94;27.14;100954.23;1721791;82;21021;-68
2021/10/10 10:20:12;;;;;;;6.92;3.65;;;;;;;17.04;25.84;100953.09;1751706;81;20950;-69
2021/10/10 10:22:42;;;;;;;13.30;6.05;;;;;;;16.93;26.35;100950.39;1680236;84;21003;-68
2021/10/10 10:25:12;;;;;;;;;;;;;;;16.61;26.57;100951.63;1682653;84;21520;-69
2021/10/10 10:27:45;;;;;;;9.53;3.42;;;;;;;16.26;26.34;100948.73;1716849;82;21100;-69
2021/10/10 10:30:13;;;;;;;;;;;;;;;16.23;27.81;100942.44;1735768;82;21031;-67
2021/10/10 10:32:43;;;;;;;10.93;5.05;;;;;;;16.36;27.85;100943.47;1706139;82;20268;-69
2021/10/10 10:35:19;;;;;;;6.87;4.00;;;;;;;16.38;27.26;100939.23;1684072;82;21082;-68
2021/10/10 10:37:51;;;;;;;6.67;3.05;;;;;;;16.35;28.34;100936.30;1730715;82;21015;-70
2021/10/10 10:40:28;;;;;;;8.78;3.20;;;;;;;16.27;26.84;100934.30;1780616;80;21167;-69
2021/10/10 10:43:02;;;;;;;8.23;3.55;;;;;;;16.06;28.17;100927.16;1780698;80;20951;-67
2021/10/10 10:45:41;;;;;;;6.50;3.22;;;;;;;15.90;26.91;100931.47;1780694;80;20986;-71
2021/10/10 10:48:35;;;;;;;5.60;2.55;;;;;;;15.71;27.42;100930.30;1780901;80;20955;-67
2021/10/10 10:51:25;;;;;;;6.55;3.12;;;;;;;15.64;26.85;100939.62;1780668;80;21557;-68
2021/10/10 10:54:37;;;;;;;13.35;2.52;;;;;;;15.60;27.07;100929.74;1750416;80;21014;-68
2021/10/10 10:57:32;;;;;;;9.70;3.83;;;;;;;15.60;27.06;100932.52;1780816;79;20994;-68
2021/10/10 11:00:12;;;;;;;7.92;4.17;;;;;;;15.61;29.33;100933.33;1775654;80;21023;-72
2021/10/10 11:03:13;;;;;;;8.75;4.47;;;;;;;15.62;28.82;100922.51;1775229;80;20955;-69
2021/10/10 11:06:00;;;;;;;6.30;3.33;;;;;;;15.58;28.68;100930.66;1775509;80;21058;-72
2021/10/10 11:08:35;;;;;;;4.97;3.47;;;;;;;15.50;28.19;100930.81;1734906;82;21171;-71
2021/10/10 11:11:23;;;;;;;12.45;4.05;;;;;;;15.34;27.83;100935.66;1712051;83;21020;-72
2021/10/10 11:14:02;;;;;;;10.13;4.40;;;;;;;15.01;27.94;100925.40;1758521;80;20982;-72
2021/10/10 11:16:32;;;;;;;13.43;3.98;;;;;;;14.98;29.64;100930.98;1756150;81;21039;-73
2021/10/10 11:19:11;;;;;;;10.58;3.60;;;;;;;15.46;29.50;100925.66;1756001;81;21518;-71
2021/10/10 11:21:41;;;;;;;19.45;4.37;;;;;;;16.03;28.40;100929.17;1755784;81;21172;-71
2021/10/10 11:24:22;;;;;;;6.53;3.92;;;;;;;16.53;28.99;100918.58;1755407;80;21059;-72
2021/10/10 11:26:48;;;;;;;9.23;4.10;;;;;;;17.02;25.83;100922.09;1771375;79;20993;-72
2021/10/10 11:29:17;;;;;;;10.65;4.55;;;;;;;17.17;25.71;100914.67;1775879;80;21009;-71
2021/10/10 11:31:45;;;;;;;13.48;4.72;;;;;;;17.07;26.66;100912.22;1784182;80;21006;-71
2021/10/10 11:34:15;;;;;;;15.28;4.25;;;;;;;17.10;26.96;100908.80;1789535;80;21077;-71